Etusivu
METAR-TAF:

METAR-TAF

Lentoasemat :

Niamey, Niger

Diori Hamanin kansainvälinen lentoasema

Leveyspiiri: 13-29N, Pituuspiiri: 002-10E, korkeus merenpinnasta: 223 m

Tämänhetkinen sää

Tämä raportti tehtiin 52 minuuttia sitten, kello 09.00 UTC
Tuuli 1 kn eri suunnista
Lämpötila 29°C
Kosteus 31%
Ilmanpaine 1014 hPa
Näkyvyys: 3200 m
laajalle levinnyttä pölyä

METAR: DRRN 220900Z VRB01KT 3200 DU NSC 29/10 Q1014 TEMPO 2000

Aika: 10:52 (09:52 UTC)

Sääennuste

Tämä raportti tehtiin 4 tuntia ja 52 minuuttia sitten, kello 05.00 UTC
Ennuste voimassa 22. päivästä klo 06 UTC - 23. päivään klo 12 UTC
Tuuli 8 kn idästä/koillisesta
Näkyvyys: 8000 m
Ajoittain
22. päivästä klo 06 UTC - 22. päivään klo 09 UTC
Näkyvyys: 3500 m
laajalle levinnyttä pölyä
Ajoittain
22. päivästä klo 17 UTC - 22. päivään klo 20 UTC
Näkyvyys: 4000 m
laajalle levinnyttä pölyä

TAF: DRRN 220500Z 2206/2312 06008KT 8000 NSC TEMPO 2206/2209 3500 DU TEMPO 2217/2220 4000 DU

Säähavainnot ja -ennusteet yli 4000 lentoasemalta (METAR- ja TAF-raportit).

Käytössä olevat sääasemat on merkitty karttaan keltaisilla ja punaisilla pisteillä.

Aseta hiiri pisteen päälle nähdäksesi sääaseman nimen.

Klikkaa sitten nähdäksesi säähavainnot ja -ennusteet.

Kartan vaihtaminen: klikkaa mustalla rastilla varustettuja vihreitä pisteitä, niin voit zoomata sisään; viivalla varustettua vihreää pistettä, niin voit zoomata ulos tai vihreitä nuolia, niin pääset viereisille kartoille.


METAR-TAF: